createdAt,value
2022-07-26T00:02:25.996Z,2.20
2022-07-26T00:05:19.743Z,2.45
2022-07-26T00:08:13.384Z,2.45
2022-07-26T00:11:08.262Z,2.10
2022-07-26T00:14:01.930Z,2.50
2022-07-26T00:16:55.454Z,2.63
2022-07-26T00:19:48.436Z,2.30
2022-07-26T00:22:41.971Z,2.10
2022-07-26T00:25:35.311Z,2.10
2022-07-26T00:28:29.644Z,1.95
2022-07-26T00:31:23.785Z,2.25
2022-07-26T00:34:17.521Z,1.67
2022-07-26T00:37:10.537Z,2.40
2022-07-26T00:40:03.781Z,1.98
2022-07-26T00:42:57.429Z,1.98
2022-07-26T00:45:52.166Z,2.00
2022-07-26T00:48:45.851Z,1.83
2022-07-26T00:51:40.835Z,2.50
2022-07-26T00:54:34.677Z,2.13
2022-07-26T00:57:28.557Z,2.20
2022-07-26T01:00:26.394Z,2.83
2022-07-26T01:03:21.145Z,2.20
2022-07-26T01:06:14.484Z,2.60
2022-07-26T01:09:12.055Z,2.00
2022-07-26T01:12:05.997Z,2.38
2022-07-26T01:14:59.501Z,2.40
2022-07-26T01:17:52.437Z,1.90
2022-07-26T01:20:49.338Z,1.88
2022-07-26T01:23:44.715Z,2.10
2022-07-26T01:26:38.835Z,1.83
2022-07-26T01:29:34.585Z,2.10
2022-07-26T01:32:28.376Z,2.00
2022-07-26T01:35:21.462Z,1.83
2022-07-26T01:38:14.837Z,2.00
2022-07-26T01:41:09.579Z,2.13
2022-07-26T01:44:02.376Z,1.85
2022-07-26T01:46:55.580Z,2.35
2022-07-26T01:49:48.598Z,2.10
2022-07-26T01:52:41.584Z,2.28
2022-07-26T01:55:34.969Z,2.00
2022-07-26T01:58:29.598Z,1.80
2022-07-26T02:01:38.461Z,2.35
2022-07-26T02:04:53.543Z,1.70
2022-07-26T02:07:46.578Z,1.80
2022-07-26T02:10:57.732Z,1.80
2022-07-26T02:13:53.397Z,2.33
2022-07-26T02:16:46.011Z,1.95
2022-07-26T02:19:39.523Z,1.90
2022-07-26T02:22:32.179Z,1.33
2022-07-26T02:25:25.440Z,1.30
2022-07-26T02:28:18.786Z,1.67
2022-07-26T02:31:15.559Z,1.30
2022-07-26T02:34:09.923Z,1.65
2022-07-26T02:37:03.728Z,1.60
2022-07-26T02:39:56.573Z,1.58
2022-07-26T02:42:49.827Z,1.63
2022-07-26T02:45:43.058Z,1.52
2022-07-26T02:48:38.234Z,1.58
2022-07-26T02:51:31.544Z,1.60
2022-07-26T02:54:24.987Z,1.80
2022-07-26T02:57:18.421Z,1.83
2022-07-26T03:00:13.694Z,1.67
2022-07-26T03:03:06.740Z,1.70
2022-07-26T03:06:01.986Z,1.60
2022-07-26T03:08:55.447Z,1.70
2022-07-26T03:11:48.948Z,1.40
2022-07-26T03:14:42.556Z,1.50
2022-07-26T03:17:35.383Z,1.67
2022-07-26T03:20:28.748Z,1.40
2022-07-26T03:23:23.189Z,1.30
2022-07-26T03:26:16.510Z,1.73
2022-07-26T03:29:09.371Z,1.88
2022-07-26T03:32:02.165Z,1.65
2022-07-26T03:34:55.885Z,1.70
2022-07-26T03:37:49.833Z,1.88
2022-07-26T03:40:45.245Z,1.73
2022-07-26T03:43:38.479Z,1.40
2022-07-26T03:46:31.966Z,1.45
2022-07-26T03:49:26.013Z,1.63
2022-07-26T03:52:19.920Z,1.58
2022-07-26T03:55:30.786Z,1.67
2022-07-26T03:58:24.827Z,1.70
2022-07-26T04:01:19.298Z,1.52
2022-07-26T04:04:14.478Z,1.70
2022-07-26T04:07:07.464Z,1.80
2022-07-26T04:10:02.748Z,1.85
2022-07-26T04:12:55.269Z,1.70
2022-07-26T04:15:49.858Z,1.80
2022-07-26T04:18:43.679Z,1.92
2022-07-26T04:21:36.726Z,1.80
2022-07-26T04:24:29.633Z,1.80
2022-07-26T04:27:22.700Z,1.98
2022-07-26T04:30:15.951Z,1.67
2022-07-26T04:33:11.184Z,1.60
2022-07-26T04:36:04.736Z,1.73
2022-07-26T04:38:57.731Z,1.70
2022-07-26T04:41:50.538Z,1.55
2022-07-26T04:44:43.900Z,1.75
2022-07-26T04:47:37.652Z,1.40
2022-07-26T04:50:32.113Z,1.75
2022-07-26T04:53:25.648Z,1.98
2022-07-26T04:56:18.613Z,1.60
2022-07-26T04:59:11.643Z,1.80
2022-07-26T05:02:04.621Z,1.45
2022-07-26T05:04:57.419Z,1.70
2022-07-26T05:07:53.186Z,2.05
2022-07-26T05:10:49.418Z,1.85
2022-07-26T05:13:46.853Z,1.70
2022-07-26T05:16:44.241Z,1.90
2022-07-26T05:19:38.218Z,1.35
2022-07-26T05:22:31.486Z,1.58
2022-07-26T05:25:26.514Z,1.60
2022-07-26T05:28:19.796Z,1.67
2022-07-26T05:31:13.347Z,1.70
2022-07-26T05:34:08.200Z,1.83
2022-07-26T05:37:01.539Z,1.80
2022-07-26T05:39:54.575Z,1.40
2022-07-26T05:42:49.187Z,1.75
2022-07-26T05:45:42.524Z,1.58
2022-07-26T05:48:35.884Z,1.45
2022-07-26T05:51:30.189Z,1.60
2022-07-26T05:54:24.009Z,1.70
2022-07-26T05:57:17.660Z,1.38
2022-07-26T06:00:12.923Z,1.40
2022-07-26T06:03:20.489Z,1.50
2022-07-26T06:06:13.855Z,1.40
2022-07-26T06:09:06.674Z,1.40
2022-07-26T06:11:59.836Z,1.70
2022-07-26T06:14:52.668Z,1.45
2022-07-26T06:17:46.857Z,1.27
2022-07-26T06:20:40.247Z,1.02
2022-07-26T06:23:35.132Z,1.90
2022-07-26T06:26:28.645Z,1.05
2022-07-26T06:29:21.596Z,1.20
2022-07-26T06:32:15.540Z,1.30
2022-07-26T06:35:10.560Z,1.05
2022-07-26T06:38:04.252Z,1.27
2022-07-26T06:40:57.542Z,1.40
2022-07-26T06:43:50.806Z,1.00
2022-07-26T06:46:43.659Z,1.60
2022-07-26T06:49:36.964Z,1.20
2022-07-26T06:52:35.417Z,1.45
2022-07-26T06:55:28.690Z,1.40
2022-07-26T06:58:21.714Z,1.30
2022-07-26T07:01:58.434Z,1.30
2022-07-26T07:04:30.006Z,1.20
2022-07-26T07:07:23.802Z,1.52
2022-07-26T07:10:23.788Z,1.58
2022-07-26T07:13:17.795Z,1.30
2022-07-26T07:16:10.915Z,1.20
2022-07-26T07:19:03.614Z,1.30
2022-07-26T07:21:56.503Z,1.10
2022-07-26T07:24:49.701Z,1.80
2022-07-26T07:27:44.221Z,1.10
2022-07-26T07:30:37.525Z,0.98
2022-07-26T07:33:36.401Z,1.20
2022-07-26T07:36:36.753Z,0.90
2022-07-26T07:39:34.600Z,1.27
2022-07-26T07:42:31.682Z,1.17
2022-07-26T07:45:26.145Z,1.20
2022-07-26T07:48:19.651Z,1.10
2022-07-26T07:51:12.893Z,1.58
2022-07-26T07:54:06.451Z,1.02
2022-07-26T07:56:59.590Z,1.50
2022-07-26T07:59:52.797Z,1.23
2022-07-26T08:02:48.127Z,1.13
2022-07-26T08:05:41.568Z,0.95
2022-07-26T08:08:35.997Z,1.20
2022-07-26T08:11:30.019Z,1.02
2022-07-26T08:14:24.344Z,1.35
2022-07-26T08:17:17.809Z,1.65
2022-07-26T08:20:16.650Z,1.38
2022-07-26T08:23:09.782Z,1.65
2022-07-26T08:26:06.564Z,0.95
2022-07-26T08:29:00.544Z,1.30
2022-07-26T08:31:53.999Z,1.58
2022-07-26T08:34:46.912Z,1.52
2022-07-26T08:37:42.258Z,1.58
2022-07-26T08:40:36.698Z,1.20
2022-07-26T08:43:30.282Z,1.45
2022-07-26T08:46:28.783Z,1.17
2022-07-26T08:49:22.164Z,1.45
2022-07-26T08:52:16.633Z,1.27
2022-07-26T08:55:12.227Z,1.27
2022-07-26T08:58:06.217Z,1.33
2022-07-26T09:01:12.041Z,1.33
2022-07-26T09:04:43.895Z,1.40
2022-07-26T09:07:35.930Z,1.27
2022-07-26T09:10:39.044Z,1.50
2022-07-26T09:13:51.645Z,1.40
2022-07-26T09:16:57.764Z,1.20
2022-07-26T09:20:10.498Z,1.02
2022-07-26T09:23:06.185Z,1.30
2022-07-26T09:26:05.933Z,1.10
2022-07-26T09:29:07.881Z,1.10
2022-07-26T09:32:17.115Z,1.30
2022-07-26T09:35:44.233Z,1.08
2022-07-26T09:38:25.920Z,1.10
2022-07-26T09:41:21.978Z,1.27
2022-07-26T09:44:22.940Z,0.80
2022-07-26T09:47:15.846Z,1.20
2022-07-26T09:50:14.383Z,1.30
2022-07-26T09:53:09.427Z,1.00
2022-07-26T09:56:03.007Z,1.10
2022-07-26T09:58:57.524Z,1.17
2022-07-26T10:01:52.346Z,1.10
2022-07-26T10:04:46.101Z,1.10
2022-07-26T10:07:39.530Z,0.95
2022-07-26T10:10:37.044Z,1.20
2022-07-26T10:13:30.366Z,1.20
2022-07-26T10:16:33.195Z,0.90
2022-07-26T10:19:41.634Z,1.00
2022-07-26T10:22:46.655Z,1.13
2022-07-26T10:25:48.845Z,0.90
2022-07-26T10:28:42.769Z,1.10
2022-07-26T10:31:37.209Z,0.98
2022-07-26T10:34:32.955Z,1.10
2022-07-26T10:37:28.047Z,1.30
2022-07-26T10:40:25.283Z,1.02
2022-07-26T10:46:33.338Z,0.88
2022-07-26T10:49:34.894Z,1.00
2022-07-26T10:52:29.463Z,1.08
2022-07-26T10:55:23.207Z,1.00
2022-07-26T10:58:17.103Z,1.00
2022-07-26T11:01:10.253Z,0.80
2022-07-26T11:04:04.193Z,1.00
2022-07-26T11:07:02.865Z,0.88
2022-07-26T11:09:57.213Z,0.82
2022-07-26T11:13:00.162Z,0.88
2022-07-26T11:15:59.588Z,1.00
2022-07-26T11:18:52.851Z,0.80
2022-07-26T11:21:47.069Z,1.05
2022-07-26T11:24:41.835Z,0.93
2022-07-26T11:27:34.799Z,0.77
2022-07-26T11:30:28.052Z,0.75
2022-07-26T11:33:20.821Z,1.05
2022-07-26T11:36:14.541Z,1.00
2022-07-26T11:39:10.394Z,0.90
2022-07-26T11:42:07.500Z,0.93
2022-07-26T11:45:01.071Z,0.80
2022-07-26T11:47:58.836Z,1.00
2022-07-26T11:50:52.031Z,1.02
2022-07-26T11:53:45.830Z,0.80
2022-07-26T11:56:39.034Z,1.10
2022-07-26T11:59:35.848Z,1.20
2022-07-26T12:02:30.147Z,1.00
2022-07-26T12:05:24.771Z,1.13
2022-07-26T12:08:17.713Z,0.90
2022-07-26T12:11:13.014Z,1.10
2022-07-26T12:14:06.111Z,1.00
2022-07-26T12:17:11.050Z,1.00
2022-07-26T12:20:14.602Z,0.95
2022-07-26T12:23:08.054Z,0.98
2022-07-26T12:26:19.941Z,0.80
2022-07-26T12:29:29.855Z,0.70
2022-07-26T12:32:33.228Z,1.15
2022-07-26T12:35:32.243Z,0.88
2022-07-26T12:38:40.205Z,1.00
2022-07-26T12:41:36.435Z,0.82
2022-07-26T12:44:29.993Z,1.00
2022-07-26T12:47:22.989Z,1.25
2022-07-26T12:50:19.476Z,1.10
2022-07-26T12:53:13.138Z,0.88
2022-07-26T12:56:06.272Z,1.00
2022-07-26T12:59:01.273Z,1.13
2022-07-26T13:01:55.073Z,0.85
2022-07-26T13:04:49.419Z,1.00
2022-07-26T13:07:44.883Z,0.77
2022-07-26T13:10:38.113Z,0.80
2022-07-26T13:13:31.416Z,0.88
2022-07-26T13:16:24.789Z,0.70
2022-07-26T13:19:18.026Z,0.65
2022-07-26T13:22:11.271Z,0.80
2022-07-26T13:25:08.535Z,0.70
2022-07-26T13:28:01.663Z,0.77
2022-07-26T13:30:55.101Z,0.80
2022-07-26T13:33:48.138Z,0.85
2022-07-26T13:36:41.458Z,0.90
2022-07-26T13:39:35.731Z,0.70
2022-07-26T13:42:30.477Z,0.63
2022-07-26T13:45:24.302Z,0.77
2022-07-26T13:48:22.173Z,0.70
2022-07-26T13:51:15.653Z,0.95
2022-07-26T13:54:11.931Z,1.10
2022-07-26T13:57:07.676Z,0.90
2022-07-26T14:00:02.445Z,1.00
2022-07-26T14:02:56.710Z,0.82
2022-07-26T14:05:49.837Z,0.70
2022-07-26T14:08:43.353Z,0.80
2022-07-26T14:11:37.306Z,0.88
2022-07-26T14:14:29.825Z,0.80
2022-07-26T14:17:24.647Z,0.65
2022-07-26T14:20:18.328Z,0.80
2022-07-26T14:23:10.983Z,0.65
2022-07-26T14:26:04.428Z,0.77
2022-07-26T14:28:58.173Z,0.80
2022-07-26T14:31:51.013Z,0.63
2022-07-26T14:34:45.362Z,0.73
2022-07-26T14:37:43.649Z,0.80
2022-07-26T14:40:38.368Z,0.80
2022-07-26T14:43:32.411Z,0.90
2022-07-26T14:46:26.170Z,0.70
2022-07-26T14:49:19.455Z,0.80
2022-07-26T14:52:15.319Z,0.88
2022-07-26T14:55:09.056Z,0.90
2022-07-26T14:58:01.891Z,1.17
2022-07-26T15:00:55.463Z,0.63
2022-07-26T15:03:49.914Z,0.90
2022-07-26T15:06:43.205Z,0.90
2022-07-26T15:09:37.429Z,0.65
2022-07-26T15:12:32.320Z,0.90
2022-07-26T15:15:25.035Z,0.80
2022-07-26T15:18:18.108Z,0.80
2022-07-26T15:21:11.103Z,0.75
2022-07-26T15:24:04.462Z,0.80
2022-07-26T15:26:59.458Z,0.75
2022-07-26T15:29:53.441Z,0.75
2022-07-26T15:32:47.192Z,0.80
2022-07-26T15:35:43.771Z,0.82
2022-07-26T15:38:36.925Z,0.80
2022-07-26T15:41:30.130Z,0.80
2022-07-26T15:44:25.756Z,0.80
2022-07-26T15:47:51.268Z,0.90
2022-07-26T15:50:33.441Z,0.70
2022-07-26T15:53:29.086Z,0.80
2022-07-26T15:56:22.358Z,0.80
2022-07-26T15:59:15.453Z,0.65
2022-07-26T16:02:10.891Z,0.75
2022-07-26T16:05:04.529Z,0.80
2022-07-26T16:07:58.201Z,0.70
2022-07-26T16:10:51.626Z,0.80
2022-07-26T16:13:45.276Z,1.08
2022-07-26T16:16:38.346Z,0.70
2022-07-26T16:19:32.406Z,0.73
2022-07-26T16:22:25.558Z,0.80
2022-07-26T16:25:19.374Z,0.60
2022-07-26T16:28:12.643Z,0.70
2022-07-26T16:31:06.659Z,0.88
2022-07-26T16:34:01.633Z,0.60
2022-07-26T16:36:57.095Z,0.82
2022-07-26T16:39:50.721Z,0.75
2022-07-26T16:42:46.812Z,0.80
2022-07-26T16:45:40.430Z,0.55
2022-07-26T16:48:33.693Z,0.80
2022-07-26T16:51:27.194Z,0.70
2022-07-26T16:54:23.551Z,0.80
2022-07-26T16:57:26.974Z,0.77
2022-07-26T17:00:22.334Z,0.90
2022-07-26T17:03:16.725Z,0.73
2022-07-26T17:06:10.597Z,0.80
2022-07-26T17:09:04.973Z,0.80
2022-07-26T17:12:06.425Z,0.60
2022-07-26T17:15:00.316Z,0.70
2022-07-26T17:17:56.862Z,0.75
2022-07-26T17:20:51.191Z,0.75
2022-07-26T17:23:43.864Z,0.60
2022-07-26T17:26:37.429Z,0.60
2022-07-26T17:29:35.768Z,0.60
2022-07-26T17:32:29.961Z,0.63
2022-07-26T17:35:24.273Z,0.70
2022-07-26T17:38:18.557Z,0.68
2022-07-26T17:41:17.598Z,0.80
2022-07-26T17:44:26.686Z,0.73
2022-07-26T17:47:29.334Z,0.80
2022-07-26T17:50:36.625Z,0.55
2022-07-26T17:53:34.265Z,0.60
2022-07-26T17:56:28.644Z,0.60
2022-07-26T17:59:23.114Z,0.60
2022-07-26T18:02:17.090Z,0.60
2022-07-26T18:05:12.128Z,0.75
2022-07-26T18:08:05.849Z,0.80
2022-07-26T18:11:00.668Z,0.70
2022-07-26T18:13:54.265Z,0.80
2022-07-26T18:16:48.381Z,0.60
2022-07-26T18:19:47.649Z,0.60
2022-07-26T18:22:42.843Z,0.80
2022-07-26T18:25:39.787Z,0.52
2022-07-26T18:28:33.089Z,0.52
2022-07-26T18:31:26.327Z,0.60
2022-07-26T18:34:19.340Z,0.60
2022-07-26T18:37:12.390Z,0.80
2022-07-26T18:40:08.922Z,0.60
2022-07-26T18:43:14.250Z,0.70
2022-07-26T18:46:07.255Z,0.57
2022-07-26T18:49:00.584Z,0.70
2022-07-26T18:52:00.678Z,0.60
2022-07-26T18:54:58.580Z,0.70
2022-07-26T18:57:54.085Z,0.77
2022-07-26T19:00:48.037Z,0.60
2022-07-26T19:03:42.550Z,0.60
2022-07-26T19:06:40.153Z,0.60
2022-07-26T19:09:33.200Z,0.60
2022-07-26T19:12:26.505Z,0.60
2022-07-26T19:15:20.962Z,0.65
2022-07-26T19:18:16.159Z,0.50
2022-07-26T19:21:09.404Z,0.50
2022-07-26T19:24:03.106Z,0.70
2022-07-26T19:26:56.435Z,0.50
2022-07-26T19:29:51.556Z,0.70
2022-07-26T19:32:45.544Z,0.70
2022-07-26T19:35:39.464Z,0.70
2022-07-26T19:38:33.144Z,0.60
2022-07-26T19:41:26.411Z,0.68
2022-07-26T19:44:19.563Z,0.90
2022-07-26T19:47:13.496Z,0.60
2022-07-26T19:50:09.780Z,0.60
2022-07-26T19:53:03.666Z,1.40
2022-07-26T19:55:57.512Z,2.30
2022-07-26T19:58:50.601Z,1.90
2022-07-26T20:01:43.212Z,2.65
2022-07-26T20:04:36.651Z,1.95
2022-07-26T20:07:32.339Z,2.05
2022-07-26T20:10:30.034Z,1.58
2022-07-26T20:13:25.109Z,2.00
2022-07-26T20:16:18.635Z,2.20
2022-07-26T20:19:12.891Z,2.38
2022-07-26T20:22:06.305Z,1.88
2022-07-26T20:25:00.836Z,2.35
2022-07-26T20:27:54.695Z,2.28
2022-07-26T20:30:51.494Z,2.33
2022-07-26T20:33:44.557Z,2.08
2022-07-26T20:36:37.910Z,2.30
2022-07-26T20:39:32.070Z,2.05
2022-07-26T20:42:26.788Z,2.28
2022-07-26T20:45:23.826Z,2.28
2022-07-26T20:48:17.388Z,2.58
2022-07-26T20:51:13.254Z,2.00
2022-07-26T20:54:08.445Z,2.25
2022-07-26T20:57:04.529Z,2.42
2022-07-26T20:59:58.572Z,1.80
2022-07-26T21:02:53.622Z,1.80
2022-07-26T21:05:47.765Z,2.30
2022-07-26T21:08:41.665Z,1.80
2022-07-26T21:11:34.717Z,2.00
2022-07-26T21:14:28.470Z,2.25
2022-07-26T21:17:23.287Z,2.15
2022-07-26T21:20:27.423Z,2.20
2022-07-26T21:23:24.709Z,1.85
2022-07-26T21:26:19.085Z,2.30
2022-07-26T21:29:13.470Z,1.60
2022-07-26T21:32:08.161Z,1.73
2022-07-26T21:35:02.885Z,1.77
2022-07-26T21:37:56.327Z,1.55
2022-07-26T21:40:49.566Z,1.70
2022-07-26T21:43:43.481Z,1.55
2022-07-26T21:46:37.418Z,1.60
2022-07-26T21:49:30.549Z,1.55
2022-07-26T21:52:24.597Z,1.42
2022-07-26T21:55:18.323Z,1.60
2022-07-26T21:58:11.876Z,1.60
2022-07-26T22:01:06.477Z,1.35
2022-07-26T22:04:00.547Z,1.50
2022-07-26T22:06:53.446Z,1.45
2022-07-26T22:09:48.179Z,1.40
2022-07-26T22:12:41.557Z,1.40
2022-07-26T22:15:36.204Z,1.20
2022-07-26T22:18:29.475Z,1.20
2022-07-26T22:21:22.645Z,1.25
2022-07-26T22:24:15.580Z,1.42
2022-07-26T22:27:09.689Z,1.20
2022-07-26T22:30:04.207Z,1.40
2022-07-26T22:32:57.676Z,1.35
2022-07-26T22:35:50.765Z,1.20
2022-07-26T22:38:45.123Z,1.10
2022-07-26T22:42:04.977Z,0.90
2022-07-26T22:44:53.564Z,1.00
2022-07-26T22:47:55.782Z,1.15
2022-07-26T22:50:49.229Z,0.95
2022-07-26T22:53:42.336Z,0.98
2022-07-26T22:56:35.630Z,0.77
2022-07-26T22:59:28.693Z,0.88
2022-07-26T23:02:23.923Z,0.90
2022-07-26T23:05:17.804Z,0.88
2022-07-26T23:08:36.683Z,0.98
2022-07-26T23:11:26.758Z,1.30
2022-07-26T23:14:19.737Z,1.02
2022-07-26T23:17:12.179Z,1.00
2022-07-26T23:20:10.785Z,0.73
2022-07-26T23:23:03.844Z,0.80
2022-07-26T23:25:58.209Z,1.05
2022-07-26T23:28:52.077Z,0.90
2022-07-26T23:31:45.568Z,0.98
2022-07-26T23:34:39.026Z,0.95
2022-07-26T23:37:34.166Z,0.60
2022-07-26T23:40:27.811Z,0.93
2022-07-26T23:43:22.072Z,0.80
2022-07-26T23:46:16.076Z,0.88
2022-07-26T23:49:10.192Z,0.80
2022-07-26T23:52:03.613Z,0.77
2022-07-26T23:54:58.024Z,0.90
2022-07-26T23:57:51.752Z,0.90
